sensor_id;sensor_type;location;lat;lon;timestamp;P1;durP1;ratioP1;P2;durP2;ratioP2
7823;SDS011;3957;48.61947800;9.05303100;2023-02-28T00:00:44;3.90;;;3.08;;
7823;SDS011;3957;48.61947800;9.05303100;2023-02-28T00:01:44;3.90;;;2.88;;
7823;SDS011;3957;48.61947800;9.05303100;2023-02-28T00:02:45;3.77;;;3.00;;
7823;SDS011;3957;48.61947800;9.05303100;2023-02-28T00:03:46;4.47;;;3.17;;
7823;SDS011;3957;48.61947800;9.05303100;2023-02-28T00:04:46;3.57;;;2.83;;
7823;SDS011;3957;48.61947800;9.05303100;2023-02-28T00:05:52;3.47;;;2.50;;
7823;SDS011;3957;48.61947800;9.05303100;2023-02-28T00:06:53;4.72;;;2.90;;
7823;SDS011;3957;48.61947800;9.05303100;2023-02-28T00:07:53;4.00;;;2.93;;
7823;SDS011;3957;48.61947800;9.05303100;2023-02-28T00:08:54;3.30;;;2.70;;
7823;SDS011;3957;48.61947800;9.05303100;2023-02-28T00:09:54;4.55;;;3.00;;
7823;SDS011;3957;48.61947800;9.05303100;2023-02-28T00:10:55;3.20;;;2.70;;
7823;SDS011;3957;48.61947800;9.05303100;2023-02-28T00:11:55;4.97;;;2.80;;
7823;SDS011;3957;48.61947800;9.05303100;2023-02-28T00:12:56;3.80;;;3.40;;
7823;SDS011;3957;48.61947800;9.05303100;2023-02-28T00:14:03;3.85;;;2.70;;
7823;SDS011;3957;48.61947800;9.05303100;2023-02-28T00:15:07;3.92;;;2.70;;
7823;SDS011;3957;48.61947800;9.05303100;2023-02-28T00:16:11;4.25;;;2.63;;
7823;SDS011;3957;48.61947800;9.05303100;2023-02-28T00:17:13;3.97;;;2.60;;
7823;SDS011;3957;48.61947800;9.05303100;2023-02-28T00:18:14;3.33;;;2.60;;
7823;SDS011;3957;48.61947800;9.05303100;2023-02-28T00:19:14;4.03;;;3.03;;
7823;SDS011;3957;48.61947800;9.05303100;2023-02-28T00:20:15;4.22;;;3.03;;
7823;SDS011;3957;48.61947800;9.05303100;2023-02-28T00:21:16;3.95;;;2.80;;
7823;SDS011;3957;48.61947800;9.05303100;2023-02-28T00:22:19;4.00;;;2.97;;
7823;SDS011;3957;48.61947800;9.05303100;2023-02-28T00:23:20;3.15;;;2.80;;
7823;SDS011;3957;48.61947800;9.05303100;2023-02-28T00:24:21;3.47;;;2.90;;
7823;SDS011;3957;48.61947800;9.05303100;2023-02-28T00:25:22;5.53;;;3.20;;
7823;SDS011;3957;48.61947800;9.05303100;2023-02-28T00:26:24;4.28;;;2.78;;
7823;SDS011;3957;48.61947800;9.05303100;2023-02-28T00:27:25;5.00;;;3.10;;
7823;SDS011;3957;48.61947800;9.05303100;2023-02-28T00:28:25;4.88;;;2.90;;
7823;SDS011;3957;48.61947800;9.05303100;2023-02-28T00:29:26;3.80;;;2.77;;
7823;SDS011;3957;48.61947800;9.05303100;2023-02-28T00:30:26;4.05;;;2.90;;
7823;SDS011;3957;48.61947800;9.05303100;2023-02-28T00:31:26;3.97;;;2.93;;
7823;SDS011;3957;48.61947800;9.05303100;2023-02-28T00:32:27;6.30;;;3.20;;
7823;SDS011;3957;48.61947800;9.05303100;2023-02-28T00:33:27;5.50;;;3.10;;
7823;SDS011;3957;48.61947800;9.05303100;2023-02-28T00:34:28;4.00;;;2.90;;
7823;SDS011;3957;48.61947800;9.05303100;2023-02-28T00:35:29;4.47;;;3.07;;
7823;SDS011;3957;48.61947800;9.05303100;2023-02-28T00:36:29;6.47;;;3.43;;
7823;SDS011;3957;48.61947800;9.05303100;2023-02-28T00:37:30;4.05;;;2.70;;
7823;SDS011;3957;48.61947800;9.05303100;2023-02-28T00:38:30;3.77;;;2.67;;
7823;SDS011;3957;48.61947800;9.05303100;2023-02-28T00:39:31;4.50;;;3.07;;
7823;SDS011;3957;48.61947800;9.05303100;2023-02-28T00:40:31;3.45;;;2.83;;
7823;SDS011;3957;48.61947800;9.05303100;2023-02-28T00:41:31;4.93;;;3.20;;
7823;SDS011;3957;48.61947800;9.05303100;2023-02-28T00:42:32;6.20;;;2.83;;
7823;SDS011;3957;48.61947800;9.05303100;2023-02-28T00:43:34;5.47;;;3.17;;
7823;SDS011;3957;48.61947800;9.05303100;2023-02-28T00:44:35;7.90;;;3.20;;
7823;SDS011;3957;48.61947800;9.05303100;2023-02-28T00:45:35;5.43;;;3.00;;
7823;SDS011;3957;48.61947800;9.05303100;2023-02-28T00:46:38;3.70;;;2.65;;
7823;SDS011;3957;48.61947800;9.05303100;2023-02-28T00:47:38;3.75;;;2.80;;
7823;SDS011;3957;48.61947800;9.05303100;2023-02-28T00:48:38;3.60;;;3.00;;
7823;SDS011;3957;48.61947800;9.05303100;2023-02-28T00:49:39;3.63;;;2.77;;
7823;SDS011;3957;48.61947800;9.05303100;2023-02-28T00:50:39;4.95;;;3.13;;
7823;SDS011;3957;48.61947800;9.05303100;2023-02-28T00:51:40;5.33;;;3.47;;
7823;SDS011;3957;48.61947800;9.05303100;2023-02-28T00:52:40;3.10;;;2.70;;
7823;SDS011;3957;48.61947800;9.05303100;2023-02-28T00:53:40;3.77;;;2.90;;
7823;SDS011;3957;48.61947800;9.05303100;2023-02-28T00:54:41;5.70;;;2.72;;
7823;SDS011;3957;48.61947800;9.05303100;2023-02-28T00:55:41;5.53;;;3.13;;
7823;SDS011;3957;48.61947800;9.05303100;2023-02-28T00:56:41;3.42;;;2.85;;
7823;SDS011;3957;48.61947800;9.05303100;2023-02-28T00:57:42;4.50;;;2.95;;
7823;SDS011;3957;48.61947800;9.05303100;2023-02-28T00:58:43;3.53;;;2.80;;
7823;SDS011;3957;48.61947800;9.05303100;2023-02-28T00:59:43;4.00;;;3.10;;
7823;SDS011;3957;48.61947800;9.05303100;2023-02-28T01:00:45;3.78;;;2.95;;
7823;SDS011;3957;48.61947800;9.05303100;2023-02-28T01:01:48;4.53;;;3.10;;
7823;SDS011;3957;48.61947800;9.05303100;2023-02-28T01:02:49;3.90;;;2.87;;
7823;SDS011;3957;48.61947800;9.05303100;2023-02-28T01:03:49;5.25;;;3.10;;
7823;SDS011;3957;48.61947800;9.05303100;2023-02-28T01:04:50;5.80;;;3.30;;
7823;SDS011;3957;48.61947800;9.05303100;2023-02-28T01:05:50;3.95;;;2.92;;
7823;SDS011;3957;48.61947800;9.05303100;2023-02-28T01:06:52;5.90;;;2.88;;
7823;SDS011;3957;48.61947800;9.05303100;2023-02-28T01:07:53;4.63;;;3.33;;
7823;SDS011;3957;48.61947800;9.05303100;2023-02-28T01:08:53;5.63;;;3.30;;
7823;SDS011;3957;48.61947800;9.05303100;2023-02-28T01:09:54;4.90;;;2.63;;
7823;SDS011;3957;48.61947800;9.05303100;2023-02-28T01:10:54;3.90;;;2.88;;
7823;SDS011;3957;48.61947800;9.05303100;2023-02-28T01:11:55;4.75;;;3.25;;
7823;SDS011;3957;48.61947800;9.05303100;2023-02-28T01:12:56;4.77;;;2.90;;
7823;SDS011;3957;48.61947800;9.05303100;2023-02-28T01:13:56;3.65;;;3.25;;
7823;SDS011;3957;48.61947800;9.05303100;2023-02-28T01:14:57;5.17;;;3.00;;
7823;SDS011;3957;48.61947800;9.05303100;2023-02-28T01:15:58;5.50;;;3.27;;
7823;SDS011;3957;48.61947800;9.05303100;2023-02-28T01:16:58;4.47;;;2.97;;
7823;SDS011;3957;48.61947800;9.05303100;2023-02-28T01:17:59;4.95;;;2.72;;
7823;SDS011;3957;48.61947800;9.05303100;2023-02-28T01:18:59;6.23;;;3.10;;
7823;SDS011;3957;48.61947800;9.05303100;2023-02-28T01:19:59;5.80;;;3.33;;
7823;SDS011;3957;48.61947800;9.05303100;2023-02-28T01:21:04;4.30;;;2.93;;
7823;SDS011;3957;48.61947800;9.05303100;2023-02-28T01:22:06;3.88;;;2.90;;
7823;SDS011;3957;48.61947800;9.05303100;2023-02-28T01:23:08;3.85;;;2.88;;
7823;SDS011;3957;48.61947800;9.05303100;2023-02-28T01:24:09;5.43;;;3.30;;
7823;SDS011;3957;48.61947800;9.05303100;2023-02-28T01:25:09;3.03;;;2.73;;
7823;SDS011;3957;48.61947800;9.05303100;2023-02-28T01:26:11;4.50;;;2.87;;
7823;SDS011;3957;48.61947800;9.05303100;2023-02-28T01:27:16;5.05;;;2.80;;
7823;SDS011;3957;48.61947800;9.05303100;2023-02-28T01:28:17;5.80;;;2.90;;
7823;SDS011;3957;48.61947800;9.05303100;2023-02-28T01:29:17;4.37;;;3.00;;
7823;SDS011;3957;48.61947800;9.05303100;2023-02-28T01:30:17;5.23;;;3.03;;
7823;SDS011;3957;48.61947800;9.05303100;2023-02-28T01:31:20;4.37;;;2.60;;
7823;SDS011;3957;48.61947800;9.05303100;2023-02-28T01:32:22;4.70;;;3.08;;
7823;SDS011;3957;48.61947800;9.05303100;2023-02-28T01:33:24;4.35;;;2.60;;
7823;SDS011;3957;48.61947800;9.05303100;2023-02-28T01:34:25;4.78;;;2.97;;
7823;SDS011;3957;48.61947800;9.05303100;2023-02-28T01:35:25;4.27;;;2.63;;
7823;SDS011;3957;48.61947800;9.05303100;2023-02-28T01:36:26;4.15;;;2.95;;
7823;SDS011;3957;48.61947800;9.05303100;2023-02-28T01:37:26;4.97;;;3.33;;
7823;SDS011;3957;48.61947800;9.05303100;2023-02-28T01:38:27;5.35;;;3.13;;
7823;SDS011;3957;48.61947800;9.05303100;2023-02-28T01:39:28;3.47;;;3.10;;
7823;SDS011;3957;48.61947800;9.05303100;2023-02-28T01:40:28;4.32;;;2.70;;
7823;SDS011;3957;48.61947800;9.05303100;2023-02-28T01:41:30;5.97;;;3.10;;
7823;SDS011;3957;48.61947800;9.05303100;2023-02-28T01:42:33;5.30;;;2.85;;
7823;SDS011;3957;48.61947800;9.05303100;2023-02-28T01:46:17;4.37;;;2.93;;
7823;SDS011;3957;48.61947800;9.05303100;2023-02-28T01:47:17;4.30;;;2.93;;
7823;SDS011;3957;48.61947800;9.05303100;2023-02-28T01:48:18;4.25;;;2.72;;
7823;SDS011;3957;48.61947800;9.05303100;2023-02-28T01:49:21;4.70;;;3.30;;
7823;SDS011;3957;48.61947800;9.05303100;2023-02-28T01:50:23;5.18;;;3.15;;
7823;SDS011;3957;48.61947800;9.05303100;2023-02-28T01:51:27;6.25;;;3.15;;
7823;SDS011;3957;48.61947800;9.05303100;2023-02-28T01:52:39;5.38;;;2.97;;
7823;SDS011;3957;48.61947800;9.05303100;2023-02-28T01:53:44;4.40;;;3.30;;
7823;SDS011;3957;48.61947800;9.05303100;2023-02-28T01:54:56;5.13;;;3.10;;
7823;SDS011;3957;48.61947800;9.05303100;2023-02-28T01:55:59;5.50;;;3.30;;
7823;SDS011;3957;48.61947800;9.05303100;2023-02-28T01:57:07;4.00;;;3.00;;
7823;SDS011;3957;48.61947800;9.05303100;2023-02-28T01:58:13;5.32;;;2.90;;
7823;SDS011;3957;48.61947800;9.05303100;2023-02-28T01:59:16;3.83;;;2.97;;
7823;SDS011;3957;48.61947800;9.05303100;2023-02-28T02:00:23;3.63;;;2.85;;
7823;SDS011;3957;48.61947800;9.05303100;2023-02-28T02:01:27;5.00;;;3.33;;
7823;SDS011;3957;48.61947800;9.05303100;2023-02-28T02:02:27;5.40;;;3.20;;
7823;SDS011;3957;48.61947800;9.05303100;2023-02-28T02:03:29;4.70;;;3.10;;
7823;SDS011;3957;48.61947800;9.05303100;2023-02-28T02:04:32;4.20;;;2.88;;
7823;SDS011;3957;48.61947800;9.05303100;2023-02-28T02:05:38;4.88;;;3.20;;
7823;SDS011;3957;48.61947800;9.05303100;2023-02-28T02:06:42;5.93;;;3.65;;
7823;SDS011;3957;48.61947800;9.05303100;2023-02-28T02:07:45;6.05;;;3.20;;
7823;SDS011;3957;48.61947800;9.05303100;2023-02-28T02:08:48;5.35;;;3.00;;
7823;SDS011;3957;48.61947800;9.05303100;2023-02-28T02:09:49;5.43;;;3.30;;
7823;SDS011;3957;48.61947800;9.05303100;2023-02-28T02:10:53;5.37;;;2.97;;
7823;SDS011;3957;48.61947800;9.05303100;2023-02-28T02:11:59;5.20;;;3.20;;
7823;SDS011;3957;48.61947800;9.05303100;2023-02-28T02:15:10;3.65;;;3.00;;
7823;SDS011;3957;48.61947800;9.05303100;2023-02-28T02:16:23;4.30;;;3.30;;
7823;SDS011;3957;48.61947800;9.05303100;2023-02-28T02:17:39;4.30;;;2.97;;
7823;SDS011;3957;48.61947800;9.05303100;2023-02-28T02:18:44;5.75;;;3.30;;
7823;SDS011;3957;48.61947800;9.05303100;2023-02-28T02:23:01;5.50;;;3.58;;
7823;SDS011;3957;48.61947800;9.05303100;2023-02-28T02:33:02;5.85;;;3.47;;
7823;SDS011;3957;48.61947800;9.05303100;2023-02-28T02:34:21;4.32;;;3.10;;
7823;SDS011;3957;48.61947800;9.05303100;2023-02-28T02:37:04;3.38;;;2.72;;
7823;SDS011;3957;48.61947800;9.05303100;2023-02-28T02:38:29;4.93;;;3.60;;
7823;SDS011;3957;48.61947800;9.05303100;2023-02-28T02:40:44;4.30;;;3.22;;
7823;SDS011;3957;48.61947800;9.05303100;2023-02-28T02:41:52;4.65;;;3.35;;
7823;SDS011;3957;48.61947800;9.05303100;2023-02-28T02:44:27;6.18;;;3.40;;
7823;SDS011;3957;48.61947800;9.05303100;2023-02-28T02:45:56;5.05;;;3.22;;
7823;SDS011;3957;48.61947800;9.05303100;2023-02-28T02:47:09;5.95;;;3.53;;
7823;SDS011;3957;48.61947800;9.05303100;2023-02-28T02:48:13;5.22;;;3.13;;
7823;SDS011;3957;48.61947800;9.05303100;2023-02-28T02:49:21;4.68;;;3.20;;
7823;SDS011;3957;48.61947800;9.05303100;2023-02-28T02:50:27;4.40;;;3.30;;
7823;SDS011;3957;48.61947800;9.05303100;2023-02-28T02:51:34;5.15;;;3.45;;
7823;SDS011;3957;48.61947800;9.05303100;2023-02-28T02:52:41;7.25;;;3.50;;
7823;SDS011;3957;48.61947800;9.05303100;2023-02-28T02:53:48;6.28;;;3.38;;
7823;SDS011;3957;48.61947800;9.05303100;2023-02-28T02:54:52;5.13;;;3.60;;
7823;SDS011;3957;48.61947800;9.05303100;2023-02-28T02:55:56;4.05;;;3.30;;
7823;SDS011;3957;48.61947800;9.05303100;2023-02-28T02:57:00;6.85;;;3.30;;
7823;SDS011;3957;48.61947800;9.05303100;2023-02-28T02:58:07;5.45;;;3.42;;
7823;SDS011;3957;48.61947800;9.05303100;2023-02-28T02:59:11;5.77;;;3.40;;
7823;SDS011;3957;48.61947800;9.05303100;2023-02-28T03:00:16;3.53;;;2.97;;
7823;SDS011;3957;48.61947800;9.05303100;2023-02-28T03:01:21;4.10;;;3.22;;
7823;SDS011;3957;48.61947800;9.05303100;2023-02-28T03:02:28;4.88;;;3.30;;
7823;SDS011;3957;48.61947800;9.05303100;2023-02-28T03:03:34;5.25;;;3.17;;
7823;SDS011;3957;48.61947800;9.05303100;2023-02-28T03:04:40;6.65;;;3.45;;
7823;SDS011;3957;48.61947800;9.05303100;2023-02-28T03:05:48;5.70;;;3.58;;
7823;SDS011;3957;48.61947800;9.05303100;2023-02-28T03:06:50;4.90;;;3.45;;
7823;SDS011;3957;48.61947800;9.05303100;2023-02-28T03:07:55;4.45;;;3.40;;
7823;SDS011;3957;48.61947800;9.05303100;2023-02-28T03:08:55;5.60;;;3.40;;
7823;SDS011;3957;48.61947800;9.05303100;2023-02-28T03:09:57;4.32;;;3.35;;
7823;SDS011;3957;48.61947800;9.05303100;2023-02-28T03:10:58;5.63;;;3.70;;
7823;SDS011;3957;48.61947800;9.05303100;2023-02-28T03:12:01;4.82;;;3.58;;
7823;SDS011;3957;48.61947800;9.05303100;2023-02-28T03:13:11;7.13;;;3.63;;
7823;SDS011;3957;48.61947800;9.05303100;2023-02-28T03:14:25;5.40;;;3.58;;
7823;SDS011;3957;48.61947800;9.05303100;2023-02-28T03:15:44;5.97;;;3.30;;
7823;SDS011;3957;48.61947800;9.05303100;2023-02-28T03:17:07;6.60;;;3.80;;
7823;SDS011;3957;48.61947800;9.05303100;2023-02-28T03:20:49;7.60;;;3.42;;
7823;SDS011;3957;48.61947800;9.05303100;2023-02-28T03:24:30;4.82;;;3.45;;
7823;SDS011;3957;48.61947800;9.05303100;2023-02-28T03:27:03;5.97;;;3.45;;
7823;SDS011;3957;48.61947800;9.05303100;2023-02-28T03:28:17;6.43;;;3.63;;
7823;SDS011;3957;48.61947800;9.05303100;2023-02-28T03:29:34;5.68;;;3.35;;
7823;SDS011;3957;48.61947800;9.05303100;2023-02-28T03:30:46;4.68;;;3.40;;
7823;SDS011;3957;48.61947800;9.05303100;2023-02-28T03:32:08;6.10;;;3.58;;
7823;SDS011;3957;48.61947800;9.05303100;2023-02-28T03:33:22;5.18;;;3.65;;
7823;SDS011;3957;48.61947800;9.05303100;2023-02-28T03:34:37;6.28;;;3.75;;
7823;SDS011;3957;48.61947800;9.05303100;2023-02-28T03:35:47;4.47;;;3.58;;
7823;SDS011;3957;48.61947800;9.05303100;2023-02-28T03:36:52;5.10;;;3.53;;
7823;SDS011;3957;48.61947800;9.05303100;2023-02-28T03:38:05;5.57;;;4.00;;
7823;SDS011;3957;48.61947800;9.05303100;2023-02-28T03:39:15;4.93;;;3.53;;
7823;SDS011;3957;48.61947800;9.05303100;2023-02-28T03:40:23;5.25;;;3.55;;
7823;SDS011;3957;48.61947800;9.05303100;2023-02-28T03:42:48;5.93;;;3.60;;
7823;SDS011;3957;48.61947800;9.05303100;2023-02-28T03:44:03;5.45;;;3.42;;
7823;SDS011;3957;48.61947800;9.05303100;2023-02-28T03:45:10;5.00;;;3.70;;
7823;SDS011;3957;48.61947800;9.05303100;2023-02-28T03:46:16;6.00;;;3.70;;
7823;SDS011;3957;48.61947800;9.05303100;2023-02-28T03:47:25;4.60;;;3.38;;
7823;SDS011;3957;48.61947800;9.05303100;2023-02-28T03:48:31;5.93;;;3.63;;
7823;SDS011;3957;48.61947800;9.05303100;2023-02-28T03:49:40;4.57;;;3.70;;
7823;SDS011;3957;48.61947800;9.05303100;2023-02-28T03:50:48;6.00;;;3.88;;
7823;SDS011;3957;48.61947800;9.05303100;2023-02-28T03:51:53;7.13;;;4.15;;
7823;SDS011;3957;48.61947800;9.05303100;2023-02-28T03:54:36;4.90;;;3.95;;
7823;SDS011;3957;48.61947800;9.05303100;2023-02-28T03:55:48;4.80;;;3.53;;
7823;SDS011;3957;48.61947800;9.05303100;2023-02-28T03:56:56;4.65;;;3.75;;
7823;SDS011;3957;48.61947800;9.05303100;2023-02-28T03:59:30;5.55;;;3.88;;
7823;SDS011;3957;48.61947800;9.05303100;2023-02-28T04:00:37;6.53;;;4.13;;
7823;SDS011;3957;48.61947800;9.05303100;2023-02-28T04:01:43;5.72;;;3.70;;
7823;SDS011;3957;48.61947800;9.05303100;2023-02-28T04:02:46;5.53;;;3.85;;
7823;SDS011;3957;48.61947800;9.05303100;2023-02-28T04:03:52;4.70;;;3.55;;
7823;SDS011;3957;48.61947800;9.05303100;2023-02-28T04:04:53;6.13;;;3.72;;
7823;SDS011;3957;48.61947800;9.05303100;2023-02-28T04:05:54;5.82;;;3.88;;
7823;SDS011;3957;48.61947800;9.05303100;2023-02-28T04:07:03;5.35;;;4.05;;
7823;SDS011;3957;48.61947800;9.05303100;2023-02-28T04:08:08;5.63;;;4.00;;
7823;SDS011;3957;48.61947800;9.05303100;2023-02-28T04:09:11;5.27;;;3.80;;
7823;SDS011;3957;48.61947800;9.05303100;2023-02-28T04:10:13;5.78;;;3.80;;
7823;SDS011;3957;48.61947800;9.05303100;2023-02-28T04:11:32;7.05;;;3.88;;
7823;SDS011;3957;48.61947800;9.05303100;2023-02-28T04:12:34;8.07;;;5.93;;
7823;SDS011;3957;48.61947800;9.05303100;2023-02-28T04:13:35;6.10;;;4.80;;
7823;SDS011;3957;48.61947800;9.05303100;2023-02-28T04:14:35;6.57;;;4.38;;
7823;SDS011;3957;48.61947800;9.05303100;2023-02-28T04:15:35;6.83;;;4.10;;
7823;SDS011;3957;48.61947800;9.05303100;2023-02-28T04:16:37;6.35;;;4.20;;
7823;SDS011;3957;48.61947800;9.05303100;2023-02-28T04:17:41;5.93;;;4.13;;
7823;SDS011;3957;48.61947800;9.05303100;2023-02-28T04:18:42;5.13;;;4.05;;
7823;SDS011;3957;48.61947800;9.05303100;2023-02-28T04:19:45;5.63;;;4.28;;
7823;SDS011;3957;48.61947800;9.05303100;2023-02-28T04:20:45;6.97;;;4.50;;
7823;SDS011;3957;48.61947800;9.05303100;2023-02-28T04:21:49;6.10;;;4.18;;
7823;SDS011;3957;48.61947800;9.05303100;2023-02-28T04:22:51;6.85;;;4.05;;
7823;SDS011;3957;48.61947800;9.05303100;2023-02-28T04:23:51;5.63;;;3.93;;
7823;SDS011;3957;48.61947800;9.05303100;2023-02-28T04:24:52;7.13;;;4.80;;
7823;SDS011;3957;48.61947800;9.05303100;2023-02-28T04:25:55;8.20;;;5.20;;
7823;SDS011;3957;48.61947800;9.05303100;2023-02-28T04:26:56;6.20;;;4.47;;
7823;SDS011;3957;48.61947800;9.05303100;2023-02-28T04:27:58;5.70;;;4.40;;
7823;SDS011;3957;48.61947800;9.05303100;2023-02-28T04:28:58;5.60;;;4.30;;
7823;SDS011;3957;48.61947800;9.05303100;2023-02-28T04:29:59;6.63;;;4.55;;
7823;SDS011;3957;48.61947800;9.05303100;2023-02-28T04:31:01;5.63;;;4.43;;
7823;SDS011;3957;48.61947800;9.05303100;2023-02-28T04:32:04;6.05;;;4.60;;
7823;SDS011;3957;48.61947800;9.05303100;2023-02-28T04:33:04;7.60;;;4.65;;
7823;SDS011;3957;48.61947800;9.05303100;2023-02-28T04:34:05;6.88;;;4.53;;
7823;SDS011;3957;48.61947800;9.05303100;2023-02-28T04:35:05;6.03;;;4.20;;
7823;SDS011;3957;48.61947800;9.05303100;2023-02-28T04:36:07;6.37;;;4.13;;
7823;SDS011;3957;48.61947800;9.05303100;2023-02-28T04:37:08;5.80;;;4.00;;
7823;SDS011;3957;48.61947800;9.05303100;2023-02-28T04:38:08;5.67;;;4.30;;
7823;SDS011;3957;48.61947800;9.05303100;2023-02-28T04:39:09;7.68;;;4.50;;
7823;SDS011;3957;48.61947800;9.05303100;2023-02-28T04:40:10;7.03;;;4.97;;
7823;SDS011;3957;48.61947800;9.05303100;2023-02-28T04:41:11;6.27;;;4.57;;
7823;SDS011;3957;48.61947800;9.05303100;2023-02-28T04:42:12;4.55;;;4.00;;
7823;SDS011;3957;48.61947800;9.05303100;2023-02-28T04:43:13;6.25;;;4.53;;
7823;SDS011;3957;48.61947800;9.05303100;2023-02-28T04:44:13;7.10;;;4.50;;
7823;SDS011;3957;48.61947800;9.05303100;2023-02-28T04:45:15;8.23;;;5.00;;
7823;SDS011;3957;48.61947800;9.05303100;2023-02-28T04:46:15;7.72;;;4.35;;
7823;SDS011;3957;48.61947800;9.05303100;2023-02-28T04:47:15;8.10;;;4.70;;
7823;SDS011;3957;48.61947800;9.05303100;2023-02-28T04:48:16;7.63;;;4.80;;
7823;SDS011;3957;48.61947800;9.05303100;2023-02-28T04:49:16;6.03;;;4.30;;
7823;SDS011;3957;48.61947800;9.05303100;2023-02-28T04:50:17;7.80;;;4.63;;
7823;SDS011;3957;48.61947800;9.05303100;2023-02-28T04:51:18;7.10;;;4.43;;
7823;SDS011;3957;48.61947800;9.05303100;2023-02-28T04:52:19;6.53;;;4.65;;
7823;SDS011;3957;48.61947800;9.05303100;2023-02-28T04:53:20;8.30;;;5.15;;
7823;SDS011;3957;48.61947800;9.05303100;2023-02-28T04:54:21;6.43;;;4.50;;
7823;SDS011;3957;48.61947800;9.05303100;2023-02-28T04:55:21;6.00;;;4.43;;
7823;SDS011;3957;48.61947800;9.05303100;2023-02-28T04:56:21;6.67;;;5.00;;
7823;SDS011;3957;48.61947800;9.05303100;2023-02-28T04:57:22;10.02;;;5.72;;
7823;SDS011;3957;48.61947800;9.05303100;2023-02-28T04:58:22;7.57;;;5.17;;
7823;SDS011;3957;48.61947800;9.05303100;2023-02-28T04:59:23;6.73;;;4.73;;
7823;SDS011;3957;48.61947800;9.05303100;2023-02-28T05:00:23;6.20;;;4.20;;
7823;SDS011;3957;48.61947800;9.05303100;2023-02-28T05:01:26;6.38;;;4.43;;
7823;SDS011;3957;48.61947800;9.05303100;2023-02-28T05:02:26;6.63;;;4.75;;
7823;SDS011;3957;48.61947800;9.05303100;2023-02-28T05:03:27;7.32;;;4.75;;
7823;SDS011;3957;48.61947800;9.05303100;2023-02-28T05:04:27;6.37;;;4.67;;
7823;SDS011;3957;48.61947800;9.05303100;2023-02-28T05:05:27;6.18;;;4.55;;
7823;SDS011;3957;48.61947800;9.05303100;2023-02-28T05:06:30;7.07;;;4.80;;
7823;SDS011;3957;48.61947800;9.05303100;2023-02-28T05:07:32;8.20;;;4.78;;
7823;SDS011;3957;48.61947800;9.05303100;2023-02-28T05:08:32;8.80;;;5.22;;
7823;SDS011;3957;48.61947800;9.05303100;2023-02-28T05:09:33;5.78;;;4.70;;
7823;SDS011;3957;48.61947800;9.05303100;2023-02-28T05:10:33;6.80;;;4.80;;
7823;SDS011;3957;48.61947800;9.05303100;2023-02-28T05:11:34;7.90;;;5.63;;
7823;SDS011;3957;48.61947800;9.05303100;2023-02-28T05:12:35;7.55;;;5.50;;
7823;SDS011;3957;48.61947800;9.05303100;2023-02-28T05:13:35;8.10;;;5.63;;
7823;SDS011;3957;48.61947800;9.05303100;2023-02-28T05:14:35;6.60;;;4.90;;
7823;SDS011;3957;48.61947800;9.05303100;2023-02-28T05:15:36;6.35;;;5.32;;
7823;SDS011;3957;48.61947800;9.05303100;2023-02-28T05:16:37;8.90;;;4.88;;
7823;SDS011;3957;48.61947800;9.05303100;2023-02-28T05:17:37;6.60;;;4.83;;
7823;SDS011;3957;48.61947800;9.05303100;2023-02-28T05:18:37;8.85;;;4.90;;
7823;SDS011;3957;48.61947800;9.05303100;2023-02-28T05:19:38;7.03;;;4.93;;
7823;SDS011;3957;48.61947800;9.05303100;2023-02-28T05:20:38;8.33;;;4.73;;
7823;SDS011;3957;48.61947800;9.05303100;2023-02-28T05:21:48;6.40;;;4.32;;
7823;SDS011;3957;48.61947800;9.05303100;2023-02-28T05:22:51;5.90;;;4.70;;
7823;SDS011;3957;48.61947800;9.05303100;2023-02-28T05:23:52;10.60;;;4.95;;
7823;SDS011;3957;48.61947800;9.05303100;2023-02-28T05:24:53;6.17;;;4.67;;
7823;SDS011;3957;48.61947800;9.05303100;2023-02-28T05:25:53;6.50;;;4.60;;
7823;SDS011;3957;48.61947800;9.05303100;2023-02-28T05:26:54;7.93;;;5.28;;
7823;SDS011;3957;48.61947800;9.05303100;2023-02-28T05:27:54;6.77;;;4.53;;
7823;SDS011;3957;48.61947800;9.05303100;2023-02-28T05:28:55;6.10;;;4.85;;
7823;SDS011;3957;48.61947800;9.05303100;2023-02-28T05:29:56;6.10;;;4.40;;
7823;SDS011;3957;48.61947800;9.05303100;2023-02-28T05:30:56;7.45;;;5.22;;
7823;SDS011;3957;48.61947800;9.05303100;2023-02-28T05:31:57;6.80;;;4.77;;
7823;SDS011;3957;48.61947800;9.05303100;2023-02-28T05:32:57;8.03;;;5.10;;
7823;SDS011;3957;48.61947800;9.05303100;2023-02-28T05:33:58;5.88;;;4.97;;
7823;SDS011;3957;48.61947800;9.05303100;2023-02-28T05:34:59;7.97;;;5.05;;
7823;SDS011;3957;48.61947800;9.05303100;2023-02-28T05:35:59;6.40;;;5.20;;
7823;SDS011;3957;48.61947800;9.05303100;2023-02-28T05:36:59;6.93;;;5.10;;
7823;SDS011;3957;48.61947800;9.05303100;2023-02-28T05:38:00;6.83;;;4.90;;
7823;SDS011;3957;48.61947800;9.05303100;2023-02-28T05:39:00;9.60;;;5.53;;
7823;SDS011;3957;48.61947800;9.05303100;2023-02-28T05:40:01;6.90;;;5.00;;
7823;SDS011;3957;48.61947800;9.05303100;2023-02-28T05:41:04;7.63;;;5.50;;
7823;SDS011;3957;48.61947800;9.05303100;2023-02-28T05:42:09;6.72;;;4.90;;
7823;SDS011;3957;48.61947800;9.05303100;2023-02-28T05:43:10;6.67;;;5.27;;
7823;SDS011;3957;48.61947800;9.05303100;2023-02-28T05:44:11;7.95;;;5.03;;
7823;SDS011;3957;48.61947800;9.05303100;2023-02-28T05:45:12;8.95;;;5.50;;
7823;SDS011;3957;48.61947800;9.05303100;2023-02-28T05:46:12;6.50;;;5.10;;
7823;SDS011;3957;48.61947800;9.05303100;2023-02-28T05:47:13;6.43;;;5.30;;
7823;SDS011;3957;48.61947800;9.05303100;2023-02-28T05:48:15;7.43;;;5.05;;
7823;SDS011;3957;48.61947800;9.05303100;2023-02-28T05:49:16;7.38;;;5.50;;
7823;SDS011;3957;48.61947800;9.05303100;2023-02-28T05:50:17;10.20;;;5.50;;
7823;SDS011;3957;48.61947800;9.05303100;2023-02-28T05:51:17;8.60;;;5.70;;
7823;SDS011;3957;48.61947800;9.05303100;2023-02-28T05:52:17;9.50;;;6.00;;
7823;SDS011;3957;48.61947800;9.05303100;2023-02-28T05:53:18;6.47;;;5.20;;
7823;SDS011;3957;48.61947800;9.05303100;2023-02-28T05:54:18;8.95;;;5.53;;
7823;SDS011;3957;48.61947800;9.05303100;2023-02-28T05:55:19;9.40;;;5.30;;
7823;SDS011;3957;48.61947800;9.05303100;2023-02-28T05:56:19;8.48;;;5.80;;
7823;SDS011;3957;48.61947800;9.05303100;2023-02-28T05:57:19;8.07;;;6.00;;
7823;SDS011;3957;48.61947800;9.05303100;2023-02-28T05:58:20;8.18;;;6.05;;
7823;SDS011;3957;48.61947800;9.05303100;2023-02-28T05:59:21;7.18;;;5.30;;
7823;SDS011;3957;48.61947800;9.05303100;2023-02-28T06:00:21;8.27;;;5.90;;
7823;SDS011;3957;48.61947800;9.05303100;2023-02-28T06:01:24;9.37;;;6.30;;
7823;SDS011;3957;48.61947800;9.05303100;2023-02-28T06:02:32;8.70;;;6.28;;
7823;SDS011;3957;48.61947800;9.05303100;2023-02-28T06:03:32;9.37;;;5.90;;
7823;SDS011;3957;48.61947800;9.05303100;2023-02-28T06:04:33;8.15;;;5.97;;
7823;SDS011;3957;48.61947800;9.05303100;2023-02-28T06:05:33;7.33;;;5.70;;
7823;SDS011;3957;48.61947800;9.05303100;2023-02-28T06:06:33;8.95;;;5.82;;
7823;SDS011;3957;48.61947800;9.05303100;2023-02-28T06:07:34;8.40;;;5.43;;
7823;SDS011;3957;48.61947800;9.05303100;2023-02-28T06:08:34;7.13;;;5.80;;
7823;SDS011;3957;48.61947800;9.05303100;2023-02-28T06:09:35;8.97;;;6.00;;
7823;SDS011;3957;48.61947800;9.05303100;2023-02-28T06:10:35;9.40;;;7.07;;
7823;SDS011;3957;48.61947800;9.05303100;2023-02-28T06:11:36;10.87;;;7.40;;